SE Lincoln WX Station Historical Data
 
Daily Summary for October 25, 2020 Units:  English    Metric   Both
Daily Weekly Monthly Yearly
  Current: High: Low: Average:
Temperature: 30.4 °F 34.1 °F 30.4 °F 33 °F
Dew Point: 26.7 °F 28.9 °F 26.5 °F 27.7 °F
Humidity: 86% 86% 79% 81%
Wind Speed: 1.9mph 2.5mph 0.2mph 1.3mph
Wind Gust: 5mph 8mph - -
WindNorth - - SE
Pressure: 30.31 in 30.31 in 30.27 in -
Precipitation: 0.00 in      
 
 
Tabular Data for October 25, 2020
Time Temperature Dew Point Pressure Wind Wind Speed Wind Gust Humidity Rainfall Rate (Hourly) solar
00:04 33.8 °F 28.3 °F 30.28 in ENE 1.9 mph 7 mph 80% 0.00 in 0 W/m2
00:09 33.8 °F 28.3 °F 30.29 in ENE 1.3 mph 4 mph 80% 0.00 in 0 W/m2
00:14 33.9 °F 28.4 °F 30.28 in ENE 1.5 mph 4 mph 80% 0.00 in 0 W/m2
00:19 33.9 °F 28.4 °F 30.29 in East 1.3 mph 4 mph 80% 0.00 in 0 W/m2
00:24 33.9 °F 28.4 °F 30.30 in East 1.6 mph 5 mph 80% 0.00 in 0 W/m2
00:29 33.9 °F 28.4 °F 30.30 in ENE 0.9 mph 4 mph 80% 0.00 in 0 W/m2
00:34 34 °F 28.4 °F 30.29 in ENE 1.3 mph 4 mph 80% 0.00 in 0 W/m2
00:39 34 °F 28.5 °F 30.29 in ENE 0.9 mph 3 mph 80% 0.00 in 0 W/m2
00:44 34 °F 28.5 °F 30.29 in ENE 1.6 mph 6 mph 80% 0.00 in 0 W/m2
00:49 34 °F 28.5 °F 30.29 in East 0.9 mph 4 mph 80% 0.00 in 0 W/m2
00:54 34 °F 28.5 °F 30.29 in ENE 1.7 mph 5 mph 80% 0.00 in 0 W/m2
00:59 34.1 °F 28.6 °F 30.29 in ENE 0.9 mph 5 mph 80% 0.00 in 0 W/m2
01:04 34.1 °F 28.6 °F 30.29 in NE 1.1 mph 7 mph 80% 0.00 in 0 W/m2
01:09 34 °F 28.5 °F 30.29 in ENE 2.1 mph 5 mph 80% 0.00 in 0 W/m2
01:14 34 °F 28.5 °F 30.28 in ENE 2.5 mph 5 mph 80% 0.00 in 0 W/m2
01:19 34 °F 28.5 °F 30.28 in ENE 1.6 mph 5 mph 80% 0.00 in 0 W/m2
01:24 34 °F 28.5 °F 30.29 in NE 0.9 mph 5 mph 80% 0.00 in 0 W/m2
01:29 34 °F 28.5 °F 30.29 in NE 1.3 mph 4 mph 80% 0.00 in 0 W/m2
01:34 34 °F 28.5 °F 30.28 in ENE 1.6 mph 5 mph 80% 0.00 in 0 W/m2
01:39 34 °F 28.5 °F 30.28 in ENE 1 mph 4 mph 80% 0.00 in 0 W/m2
01:44 34 °F 28.7 °F 30.28 in NE 0.7 mph 2 mph 80.8% 0.00 in 0 W/m2
01:49 34 °F 28.8 °F 30.28 in ENE 1.8 mph 6 mph 81% 0.00 in 0 W/m2
01:54 34 °F 28.8 °F 30.28 in ENE 1.6 mph 5 mph 81% 0.00 in 0 W/m2
01:59 34 °F 28.8 °F 30.28 in ENE 1.2 mph 5 mph 81% 0.00 in 0 W/m2
02:04 34 °F 28.8 °F 30.28 in ENE 1.7 mph 5 mph 81% 0.00 in 0 W/m2
02:09 33.9 °F 28.7 °F 30.28 in NNE 1.2 mph 4 mph 81% 0.00 in 0 W/m2
02:14 33.9 °F 28.7 °F 30.28 in ENE 0.9 mph 4 mph 81% 0.00 in 0 W/m2
02:19 33.9 °F 28.7 °F 30.28 in NNW 0.5 mph 3 mph 81% 0.00 in 0 W/m2
02:24 33.9 °F 28.7 °F 30.28 in North 0.6 mph 3 mph 81% 0.00 in 0 W/m2
02:29 33.9 °F 28.7 °F 30.28 in North 0.2 mph 5 mph 81% 0.00 in 0 W/m2
02:34 33.9 °F 28.7 °F 30.28 in NE 0.5 mph 5 mph 81% 0.00 in 0 W/m2
02:39 33.9 °F 28.7 °F 30.28 in North 0.7 mph 3 mph 81% 0.00 in 0 W/m2
02:44 33.8 °F 28.9 °F 30.27 in NE 0.2 mph 2 mph 81.9% 0.00 in 0 W/m2
02:49 33.8 °F 28.9 °F 30.27 in ENE 0.4 mph 2 mph 82% 0.00 in 0 W/m2
02:54 33.8 °F 28.9 °F 30.28 in North 1.1 mph 4 mph 82% 0.00 in 0 W/m2
02:59 33.8 °F 28.9 °F 30.28 in ENE 1.4 mph 5 mph 82% 0.00 in 0 W/m2
03:04 33.7 °F 28.8 °F 30.28 in NE 1 mph 4 mph 82% 0.00 in 0 W/m2
03:09 33.7 °F 28.8 °F 30.28 in NE 1 mph 5 mph 82% 0.00 in 0 W/m2
03:14 33.7 °F 28.7 °F 30.28 in NNE 0.7 mph 5 mph 81.7% 0.00 in 0 W/m2
03:19 33.6 °F 28.4 °F 30.28 in ENE 1.4 mph 4 mph 81% 0.00 in 0 W/m2
03:24 33.6 °F 28.4 °F 30.29 in NNE 1.3 mph 4 mph 81% 0.00 in 0 W/m2
03:29 33.5 °F 28.3 °F 30.28 in NE 0.8 mph 3 mph 80.8% 0.00 in 0 W/m2
03:34 33.4 °F 27.9 °F 30.29 in NNE 1.5 mph 5 mph 80% 0.00 in 0 W/m2
03:39 33.4 °F 27.9 °F 30.29 in NNW 0.5 mph 2 mph 80% 0.00 in 0 W/m2
03:44 33.4 °F 27.9 °F 30.29 in North 1.1 mph 3 mph 80% 0.00 in 0 W/m2
03:49 33.3 °F 27.8 °F 30.29 in NNE 1.1 mph 5 mph 80% 0.00 in 0 W/m2
03:54 33.3 °F 27.8 °F 30.28 in North 1.2 mph 5 mph 80% 0.00 in 0 W/m2
03:59 33.2 °F 27.7 °F 30.28 in NE 1.1 mph 5 mph 80% 0.00 in 0 W/m2
04:04 33.2 °F 27.7 °F 30.28 in NNW 0.8 mph 3 mph 80% 0.00 in 0 W/m2
04:09 33.1 °F 27.6 °F 30.28 in ESE 1.2 mph 4 mph 80% 0.00 in 0 W/m2
04:14 33.1 °F 27.6 °F 30.28 in NNE 1.2 mph 4 mph 80% 0.00 in 0 W/m2
04:19 33.1 °F 27.6 °F 30.28 in NNW 0.9 mph 4 mph 80% 0.00 in 0 W/m2
04:24 33 °F 27.5 °F 30.28 in NE 1.6 mph 8 mph 80% 0.00 in 0 W/m2
04:29 33 °F 27.5 °F 30.27 in ENE 1.2 mph 4 mph 80% 0.00 in 0 W/m2
04:34 33 °F 27.5 °F 30.27 in NE 1.3 mph 5 mph 80% 0.00 in 0 W/m2
04:39 32.9 °F 27.4 °F 30.27 in ENE 2.2 mph 7 mph 80% 0.00 in 0 W/m2
04:44 32.9 °F 27.2 °F 30.27 in NE 1.7 mph 5 mph 79.4% 0.00 in 0 W/m2
04:49 32.9 °F 27.2 °F 30.27 in NNE 1.1 mph 5 mph 79.3% 0.00 in 0 W/m2
04:54 32.9 °F 27.4 °F 30.27 in North 1.3 mph 6 mph 80% 0.00 in 0 W/m2
04:59 32.8 °F 27.1 °F 30.27 in ENE 2.2 mph 6 mph 79.3% 0.00 in 0 W/m2
05:04 32.8 °F 27.2 °F 30.27 in NE 1.2 mph 7 mph 79.7% 0.00 in 0 W/m2
05:09 32.7 °F 27.2 °F 30.27 in NE 1.2 mph 5 mph 80% 0.00 in 0 W/m2
05:14 32.7 °F 27.2 °F 30.28 in ENE 0.8 mph 3 mph 80% 0.00 in 0 W/m2
05:19 32.7 °F 27.2 °F 30.28 in NE 1.2 mph 4 mph 80% 0.00 in 0 W/m2
05:24 32.7 °F 27.2 °F 30.28 in ENE 0.9 mph 3 mph 80% 0.00 in 0 W/m2
05:29 32.7 °F 27.2 °F 30.28 in NNW 1.1 mph 4 mph 80% 0.00 in 0 W/m2
05:34 32.7 °F 27.2 °F 30.28 in North 1.1 mph 4 mph 80% 0.00 in 0 W/m2
05:39 32.6 °F 27 °F 30.28 in North 1.1 mph 4 mph 79.6% 0.00 in 0 W/m2
05:44 32.6 °F 27.1 °F 30.28 in ENE 1.4 mph 5 mph 80% 0.00 in 0 W/m2
05:49 32.6 °F 27.1 °F 30.28 in ENE 0.9 mph 5 mph 80% 0.00 in 0 W/m2
05:54 32.6 °F 27 °F 30.28 in NW 1.2 mph 3 mph 79.8% 0.00 in 0 W/m2
05:59 32.6 °F 27.1 °F 30.29 in North 1 mph 5 mph 80% 0.00 in 0 W/m2
06:04 32.5 °F 27 °F 30.29 in North 1.5 mph 5 mph 80% 0.00 in 0 W/m2
06:09 32.5 °F 27 °F 30.29 in NE 1 mph 2 mph 80% 0.00 in 0 W/m2
06:14 32.5 °F 27 °F 30.29 in North 1.3 mph 3 mph 80% 0.00 in 0 W/m2
06:19 32.5 °F 27 °F 30.29 in NE 1 mph 5 mph 80% 0.00 in 0 W/m2
06:24 32.4 °F 26.9 °F 30.30 in NE 1.4 mph 6 mph 79.8% 0.00 in 0 W/m2
06:29 32.4 °F 26.9 °F 30.30 in NNW 2.3 mph 6 mph 80% 0.00 in 0 W/m2
06:34 32.4 °F 26.8 °F 30.30 in NNW 1.6 mph 6 mph 79.5% 0.00 in 0 W/m2
06:39 32.3 °F 26.5 °F 30.30 in NE 1.2 mph 6 mph 79% 0.00 in 0 W/m2
06:44 32.3 °F 26.5 °F 30.31 in NNW 1.5 mph 4 mph 79% 0.00 in 0 W/m2
06:49 32.3 °F 26.5 °F 30.31 in NNW 1.8 mph 5 mph 79% 0.00 in 0 W/m2
06:54 32.2 °F 26.8 °F 30.30 in NNW 1.4 mph 4 mph 80% 0.00 in 0 W/m2
06:59 32.2 °F 26.8 °F 30.31 in NNW 1.7 mph 4 mph 80.3% 0.00 in 0 W/m2
07:04 32 °F 26.8 °F 30.31 in NW 1.3 mph 5 mph 81% 0.00 in 0 W/m2
07:09 31.8 °F 26.9 °F 30.31 in NW 1.4 mph 5 mph 82% 0.00 in 0 W/m2
07:14 31.6 °F 26.9 °F 30.31 in North 1.7 mph 5 mph 82.7% 0.00 in 0 W/m2
07:19 31.4 °F 26.8 °F 30.31 in NNW 1.1 mph 4 mph 83% 0.00 in 0 W/m2
07:24 31.2 °F 26.8 °F 30.31 in North 1.4 mph 4 mph 83.8% 0.00 in 0 W/m2
07:29 31 °F 26.7 °F 30.31 in East 1.3 mph 4 mph 84% 0.00 in 0 W/m2
07:34 30.9 °F 26.8 °F 30.31 in NE 1.8 mph 6 mph 84.9% 0.00 in 0 W/m2
07:39 30.8 °F 26.8 °F 30.30 in NNW 0.5 mph 3 mph 85% 0.00 in 0 W/m2
07:44 30.8 °F 26.8 °F 30.30 in North 0.8 mph 4 mph 85% 0.00 in 0 W/m2
07:49 30.7 °F 26.8 °F 30.30 in East 1.5 mph 5 mph 85% 0.00 in 0 W/m2
07:54 30.6 °F 26.8 °F 30.30 in ENE 1.8 mph 6 mph 85.5% 0.00 in 0 W/m2
07:59 30.6 °F 26.9 °F 30.30 in North 1.3 mph 5 mph 86% 0.00 in 0 W/m2
08:04 30.5 °F 26.8 °F 30.30 in NNW 1.5 mph 5 mph 86% 0.00 in 0 W/m2
08:09 30.5 °F 26.8 °F 30.31 in NE 1.6 mph 5 mph 86% 0.00 in 0 W/m2
08:14 30.5 °F 26.8 °F 30.31 in North 1.6 mph 5 mph 86% 0.00 in 5 W/m2
08:19 30.4 °F 26.7 °F 30.31 in North 1.9 mph 5 mph 86% 0.00 in 7 W/m2
66th and South
Compliments of Weather Underground - 8.38 mb